createdAt,value
2022-08-22T00:01:36.489Z,8.40
2022-08-22T00:02:41.798Z,1.05
2022-08-22T00:02:42.865Z,2.08
2022-08-22T00:02:58.023Z,9.40
2022-08-22T00:04:10.961Z,7.57
2022-08-22T00:06:45.484Z,7.63
2022-08-22T00:09:29.750Z,7.68
2022-08-22T00:12:14.191Z,8.45
2022-08-22T00:14:50.935Z,9.70
2022-08-22T00:18:01.039Z,10.35
2022-08-22T00:20:56.638Z,9.77
2022-08-22T00:23:26.948Z,9.80
2022-08-22T00:26:17.229Z,10.50
2022-08-22T00:28:56.345Z,11.93
2022-08-22T00:31:31.990Z,13.25
2022-08-22T00:34:03.762Z,11.10
2022-08-22T00:36:31.478Z,12.38
2022-08-22T00:39:34.308Z,12.10
2022-08-22T00:42:31.579Z,12.45
2022-08-22T00:45:42.115Z,14.60
2022-08-22T00:48:49.725Z,14.73
2022-08-22T00:51:41.616Z,15.77
2022-08-22T00:54:35.591Z,14.98
2022-08-22T00:57:31.653Z,15.20
2022-08-22T01:00:14.087Z,14.23
2022-08-22T01:03:02.605Z,14.52
2022-08-22T01:05:45.997Z,12.57
2022-08-22T01:08:42.676Z,13.07
2022-08-22T01:11:44.474Z,11.45
2022-08-22T01:14:35.000Z,11.75
2022-08-22T01:17:15.258Z,11.15
2022-08-22T01:20:04.413Z,10.60
2022-08-22T01:23:05.674Z,9.55
2022-08-22T01:26:10.865Z,10.25
2022-08-22T01:29:01.551Z,9.55
2022-08-22T01:32:03.672Z,8.88
2022-08-22T01:34:40.866Z,8.57
2022-08-22T01:37:11.800Z,7.97
2022-08-22T01:40:20.598Z,8.60
2022-08-22T01:43:17.619Z,7.72
2022-08-22T01:46:12.772Z,8.25
2022-08-22T01:49:05.103Z,8.10
2022-08-22T01:51:44.110Z,7.68
2022-08-22T01:54:34.616Z,7.93
2022-08-22T01:57:07.694Z,6.82
2022-08-22T01:59:42.857Z,6.57
2022-08-22T02:02:38.222Z,6.50
2022-08-22T02:05:21.002Z,7.25
2022-08-22T02:08:17.503Z,6.70
2022-08-22T02:11:13.939Z,6.05
2022-08-22T02:14:05.086Z,7.40
2022-08-22T02:16:37.300Z,6.43
2022-08-22T02:19:26.782Z,6.43
2022-08-22T02:22:04.702Z,5.97
2022-08-22T02:24:38.238Z,5.28
2022-08-22T02:27:24.808Z,5.32
2022-08-22T02:30:06.802Z,5.03
2022-08-22T02:32:40.592Z,5.72
2022-08-22T02:35:20.162Z,5.32
2022-08-22T02:38:13.531Z,6.05
2022-08-22T02:40:41.296Z,5.15
2022-08-22T02:43:23.777Z,5.20
2022-08-22T02:45:58.842Z,6.10
2022-08-22T02:48:55.520Z,5.85
2022-08-22T02:51:50.216Z,6.32
2022-08-22T02:54:21.817Z,6.00
2022-08-22T02:57:14.693Z,5.75
2022-08-22T03:00:31.182Z,5.97
2022-08-22T03:03:19.560Z,6.32
2022-08-22T03:06:00.877Z,6.28
2022-08-22T03:08:44.134Z,6.07
2022-08-22T03:11:35.726Z,7.13
2022-08-22T03:14:03.256Z,6.68
2022-08-22T03:16:58.447Z,6.22
2022-08-22T03:19:51.858Z,7.38
2022-08-22T03:22:43.584Z,6.70
2022-08-22T03:25:46.792Z,7.38
2022-08-22T03:28:40.935Z,7.00
2022-08-22T03:31:30.164Z,6.95
2022-08-22T03:34:27.213Z,6.85
2022-08-22T03:37:15.534Z,6.85
2022-08-22T03:40:01.247Z,8.05
2022-08-22T03:42:41.009Z,7.38
2022-08-22T03:45:38.710Z,7.65
2022-08-22T03:48:30.766Z,8.73
2022-08-22T03:51:36.027Z,8.43
2022-08-22T03:54:15.417Z,7.18
2022-08-22T03:57:01.936Z,7.50
2022-08-22T04:00:01.580Z,7.72
2022-08-22T04:02:59.544Z,7.82
2022-08-22T04:06:14.642Z,8.27
2022-08-22T04:09:22.114Z,8.23
2022-08-22T04:12:10.387Z,7.80
2022-08-22T04:15:16.170Z,8.35
2022-08-22T04:18:18.560Z,8.20
2022-08-22T04:21:06.384Z,8.50
2022-08-22T04:24:10.735Z,9.18
2022-08-22T04:26:53.080Z,9.13
2022-08-22T04:29:44.453Z,8.80
2022-08-22T04:32:26.784Z,8.85
2022-08-22T04:35:08.072Z,9.45
2022-08-22T04:37:42.711Z,8.68
2022-08-22T04:40:24.339Z,8.32
2022-08-22T04:42:57.171Z,8.70
2022-08-22T04:45:28.017Z,9.02
2022-08-22T04:48:02.879Z,8.82
2022-08-22T04:50:43.522Z,9.57
2022-08-22T04:53:37.878Z,8.95
2022-08-22T04:56:24.429Z,8.52
2022-08-22T04:59:13.327Z,9.60
2022-08-22T05:01:54.813Z,9.00
2022-08-22T05:04:41.957Z,8.45
2022-08-22T05:07:16.800Z,9.07
2022-08-22T05:09:51.816Z,9.38
2022-08-22T05:12:29.096Z,10.13
2022-08-22T05:15:03.588Z,9.00
2022-08-22T05:17:33.113Z,9.35
2022-08-22T05:20:08.230Z,9.88
2022-08-22T05:22:41.983Z,11.55
2022-08-22T05:25:15.209Z,9.52
2022-08-22T05:27:48.675Z,10.80
2022-08-22T05:30:26.096Z,9.60
2022-08-22T05:33:08.883Z,10.77
2022-08-22T05:35:50.822Z,10.18
2022-08-22T05:38:30.450Z,10.90
2022-08-22T05:41:17.182Z,10.02
2022-08-22T05:43:48.308Z,10.05
2022-08-22T05:46:37.442Z,10.85
2022-08-22T05:49:31.944Z,9.88
2022-08-22T05:52:11.605Z,10.15
2022-08-22T05:54:53.925Z,9.57
2022-08-22T05:57:32.863Z,9.73
2022-08-22T06:02:58.689Z,9.40
2022-08-22T06:05:30.822Z,10.25
2022-08-22T06:08:19.851Z,9.30
2022-08-22T06:10:59.205Z,9.50
2022-08-22T06:13:29.670Z,9.30
2022-08-22T06:15:57.501Z,10.55
2022-08-22T06:18:27.327Z,9.13
2022-08-22T06:21:04.927Z,9.82
2022-08-22T06:24:00.796Z,8.98
2022-08-22T06:26:35.922Z,9.13
2022-08-22T06:29:05.591Z,8.15
2022-08-22T06:31:41.860Z,7.50
2022-08-22T06:34:13.960Z,7.82
2022-08-22T06:36:48.568Z,7.45
2022-08-22T06:39:24.043Z,7.70
2022-08-22T06:42:16.749Z,7.63
2022-08-22T06:44:58.970Z,6.88
2022-08-22T06:47:32.825Z,6.88
2022-08-22T06:50:06.780Z,7.35
2022-08-22T06:53:21.522Z,8.27
2022-08-22T06:55:57.773Z,7.55
2022-08-22T06:58:30.963Z,8.00
2022-08-22T07:01:43.635Z,8.20
2022-08-22T07:04:11.902Z,9.40
2022-08-22T07:06:43.870Z,9.37
2022-08-22T07:09:37.382Z,9.25
2022-08-22T07:12:14.107Z,9.20
2022-08-22T07:14:47.080Z,10.00
2022-08-22T07:17:27.692Z,9.85
2022-08-22T07:19:59.903Z,8.43
2022-08-22T07:22:32.066Z,9.32
2022-08-22T07:25:13.920Z,8.10
2022-08-22T07:28:15.848Z,8.82
2022-08-22T07:30:52.900Z,8.52
2022-08-22T07:33:44.607Z,10.05
2022-08-22T07:36:18.296Z,9.18
2022-08-22T07:38:56.181Z,8.75
2022-08-22T07:42:00.217Z,9.40
2022-08-22T07:44:36.112Z,10.07
2022-08-22T07:47:21.846Z,9.95
2022-08-22T07:49:56.179Z,10.23
2022-08-22T07:52:24.933Z,8.73
2022-08-22T07:55:03.322Z,10.50
2022-08-22T07:57:41.708Z,8.90
2022-08-22T08:00:16.152Z,12.55
2022-08-22T08:02:58.737Z,9.68
2022-08-22T08:05:29.721Z,10.05
2022-08-22T08:08:00.315Z,9.15
2022-08-22T08:10:33.026Z,10.75
2022-08-22T08:13:12.262Z,10.00
2022-08-22T08:15:43.111Z,9.65
2022-08-22T08:18:22.056Z,12.32
2022-08-22T08:23:23.498Z,9.32
2022-08-22T08:26:32.944Z,8.82
2022-08-22T08:29:01.913Z,8.27
2022-08-22T08:34:20.246Z,8.30
2022-08-22T08:36:59.469Z,8.13
2022-08-22T08:39:41.683Z,8.80
2022-08-22T08:42:57.632Z,8.43
2022-08-22T08:46:02.947Z,9.02
2022-08-22T08:48:33.260Z,7.88
2022-08-22T08:51:48.291Z,8.07
2022-08-22T08:54:44.700Z,7.10
2022-08-22T08:57:39.628Z,6.32
2022-08-22T09:00:16.487Z,6.90
2022-08-22T09:03:07.165Z,7.45
2022-08-22T09:06:07.314Z,5.03
2022-08-22T09:08:56.078Z,4.47
2022-08-22T09:14:47.648Z,3.40
2022-08-22T09:17:52.947Z,3.70
2022-08-22T09:21:01.116Z,3.33
2022-08-22T09:23:34.988Z,3.47
2022-08-22T09:26:42.262Z,3.47
2022-08-22T09:29:55.063Z,3.20
2022-08-22T09:32:30.071Z,2.67
2022-08-22T09:35:13.329Z,3.08
2022-08-22T09:38:12.190Z,2.42
2022-08-22T09:40:53.746Z,2.22
2022-08-22T09:43:39.587Z,3.55
2022-08-22T09:46:31.392Z,2.90
2022-08-22T09:49:19.961Z,2.00
2022-08-22T09:52:33.119Z,2.15
2022-08-22T09:55:16.302Z,2.28
2022-08-22T09:57:55.297Z,2.22
2022-08-22T10:00:35.006Z,2.92
2022-08-22T10:03:05.786Z,2.00
2022-08-22T10:05:53.568Z,1.77
2022-08-22T10:08:31.537Z,1.83
2022-08-22T10:11:19.007Z,1.85
2022-08-22T10:13:57.343Z,2.85
2022-08-22T10:16:58.187Z,3.65
2022-08-22T10:19:50.920Z,2.35
2022-08-22T10:22:36.672Z,2.08
2022-08-22T10:25:35.356Z,2.28
2022-08-22T10:28:16.416Z,2.75
2022-08-22T10:31:19.091Z,2.80
2022-08-22T10:34:03.020Z,2.13
2022-08-22T10:36:43.533Z,2.38
2022-08-22T10:39:22.674Z,2.35
2022-08-22T10:42:11.397Z,2.10
2022-08-22T10:47:38.372Z,1.60
2022-08-22T10:50:24.855Z,2.15
2022-08-22T10:53:35.207Z,1.92
2022-08-22T10:56:14.105Z,1.48
2022-08-22T10:58:50.960Z,1.95
2022-08-22T11:01:37.697Z,2.00
2022-08-22T11:04:31.121Z,2.00
2022-08-22T11:07:35.444Z,1.40
2022-08-22T11:10:09.618Z,1.75
2022-08-22T11:12:44.554Z,1.58
2022-08-22T11:15:26.191Z,1.60
2022-08-22T11:18:13.152Z,1.45
2022-08-22T11:21:07.251Z,2.10
2022-08-22T11:23:38.429Z,2.25
2022-08-22T11:26:33.817Z,1.52
2022-08-22T11:29:26.488Z,1.20
2022-08-22T11:32:15.436Z,1.23
2022-08-22T11:35:12.508Z,1.67
2022-08-22T11:37:46.335Z,1.15
2022-08-22T11:40:31.624Z,1.05
2022-08-22T11:43:12.092Z,0.88
2022-08-22T11:45:49.560Z,1.10
2022-08-22T11:48:35.687Z,1.63
2022-08-22T11:51:13.073Z,1.80
2022-08-22T11:53:45.337Z,0.88
2022-08-22T11:56:22.656Z,1.00
2022-08-22T11:59:13.102Z,1.40
2022-08-22T12:01:57.029Z,1.23
2022-08-22T12:04:42.572Z,1.08
2022-08-22T12:07:25.623Z,1.20
2022-08-22T12:10:16.501Z,1.25
2022-08-22T12:13:15.914Z,1.17
2022-08-22T12:16:06.961Z,0.90
2022-08-22T12:19:02.180Z,1.25
2022-08-22T12:21:42.557Z,1.00
2022-08-22T12:24:48.056Z,0.75
2022-08-22T12:27:49.732Z,1.10
2022-08-22T12:30:40.458Z,1.10
2022-08-22T12:33:13.200Z,0.77
2022-08-22T12:35:52.870Z,1.08
2022-08-22T12:38:38.315Z,0.80
2022-08-22T12:41:35.376Z,0.63
2022-08-22T12:44:24.629Z,0.80
2022-08-22T12:47:14.419Z,0.60
2022-08-22T12:50:35.737Z,0.60
2022-08-22T12:55:56.883Z,0.95
2022-08-22T12:58:51.326Z,0.75
2022-08-22T13:01:20.003Z,0.60
2022-08-22T13:04:02.570Z,0.70
2022-08-22T13:06:36.739Z,0.52
2022-08-22T13:09:09.966Z,0.73
2022-08-22T13:11:41.234Z,0.60
2022-08-22T13:14:18.961Z,1.25
2022-08-22T13:16:54.048Z,0.70
2022-08-22T13:19:35.434Z,0.60
2022-08-22T13:22:17.004Z,0.40
2022-08-22T13:25:00.605Z,1.08
2022-08-22T13:27:51.608Z,0.73
2022-08-22T13:30:33.591Z,0.70
2022-08-22T13:33:14.677Z,1.33
2022-08-22T13:35:52.296Z,1.42
2022-08-22T13:38:28.699Z,1.25
2022-08-22T13:40:58.657Z,1.17
2022-08-22T13:43:30.597Z,1.40
2022-08-22T13:46:02.487Z,1.80
2022-08-22T13:48:46.717Z,1.27
2022-08-22T13:51:37.529Z,1.10
2022-08-22T13:54:21.331Z,1.50
2022-08-22T13:57:23.766Z,1.50
2022-08-22T14:00:29.327Z,1.98
2022-08-22T14:03:08.250Z,1.75
2022-08-22T14:05:40.658Z,2.50
2022-08-22T14:08:27.054Z,2.40
2022-08-22T14:11:10.590Z,2.30
2022-08-22T14:13:44.113Z,2.00
2022-08-22T14:16:32.329Z,2.60
2022-08-22T14:19:06.011Z,2.40
2022-08-22T14:21:47.348Z,2.72
2022-08-22T14:24:25.844Z,3.08
2022-08-22T14:27:06.739Z,2.40
2022-08-22T14:29:58.377Z,2.47
2022-08-22T14:32:29.717Z,2.28
2022-08-22T14:35:37.866Z,1.80
2022-08-22T14:38:27.294Z,2.58
2022-08-22T14:41:13.991Z,2.30
2022-08-22T14:43:50.571Z,2.13
2022-08-22T14:46:27.170Z,2.35
2022-08-22T14:49:06.809Z,1.85
2022-08-22T14:51:38.698Z,2.42
2022-08-22T14:54:21.329Z,2.30
2022-08-22T14:56:52.121Z,1.90
2022-08-22T14:59:52.577Z,2.17
2022-08-22T15:02:30.981Z,2.20
2022-08-22T15:05:12.269Z,2.15
2022-08-22T15:07:40.224Z,2.30
2022-08-22T15:10:26.357Z,2.47
2022-08-22T15:13:02.345Z,2.53
2022-08-22T15:15:52.933Z,3.00
2022-08-22T15:18:25.851Z,2.95
2022-08-22T15:21:11.187Z,2.58
2022-08-22T15:23:45.087Z,3.97
2022-08-22T15:26:27.036Z,2.83
2022-08-22T15:29:01.468Z,3.08
2022-08-22T15:31:32.163Z,3.30
2022-08-22T15:34:25.652Z,4.13
2022-08-22T15:37:09.103Z,3.13
2022-08-22T15:40:03.012Z,3.35
2022-08-22T15:42:46.704Z,3.45
2022-08-22T15:45:36.417Z,3.15
2022-08-22T15:48:11.438Z,3.50
2022-08-22T15:51:10.447Z,3.05
2022-08-22T15:54:03.364Z,2.70
2022-08-22T15:56:53.565Z,2.65
2022-08-22T15:59:53.734Z,4.45
2022-08-22T16:02:28.186Z,2.70
2022-08-22T16:05:16.670Z,2.30
2022-08-22T16:07:51.331Z,2.97
2022-08-22T16:10:25.191Z,3.13
2022-08-22T16:13:26.264Z,2.90
2022-08-22T16:16:23.726Z,3.30
2022-08-22T16:18:51.288Z,3.70
2022-08-22T16:21:39.179Z,3.30
2022-08-22T16:24:06.785Z,3.33
2022-08-22T16:26:42.968Z,3.70
2022-08-22T16:29:14.701Z,3.60
2022-08-22T16:31:48.602Z,3.65
2022-08-22T16:34:19.145Z,3.85
2022-08-22T16:37:08.265Z,3.88
2022-08-22T16:39:38.095Z,3.20
2022-08-22T16:42:23.941Z,3.55
2022-08-22T16:44:57.423Z,4.22
2022-08-22T16:47:41.856Z,3.75
2022-08-22T16:50:15.996Z,4.38
2022-08-22T16:53:02.352Z,3.75
2022-08-22T16:55:30.171Z,4.78
2022-08-22T16:58:14.797Z,4.40
2022-08-22T17:01:07.526Z,5.03
2022-08-22T17:03:41.203Z,4.55
2022-08-22T17:06:25.882Z,4.63
2022-08-22T17:09:27.624Z,4.20
2022-08-22T17:12:08.367Z,4.85
2022-08-22T17:14:54.875Z,4.43
2022-08-22T17:17:29.338Z,5.00
2022-08-22T17:20:06.150Z,5.70
2022-08-22T17:23:00.328Z,5.15
2022-08-22T17:25:57.533Z,4.55
2022-08-22T17:28:40.866Z,5.47
2022-08-22T17:31:36.848Z,5.60
2022-08-22T17:34:23.103Z,6.28
2022-08-22T17:37:10.632Z,5.28
2022-08-22T17:40:00.313Z,6.03
2022-08-22T17:42:44.212Z,7.20
2022-08-22T17:45:28.134Z,6.68
2022-08-22T17:48:05.259Z,6.00
2022-08-22T17:50:41.940Z,6.40
2022-08-22T17:53:25.148Z,7.60
2022-08-22T17:56:20.289Z,6.63
2022-08-22T17:59:05.436Z,5.72
2022-08-22T18:01:43.697Z,6.80
2022-08-22T18:04:29.085Z,5.78
2022-08-22T18:07:20.585Z,6.82
2022-08-22T18:10:00.458Z,5.50
2022-08-22T18:12:31.185Z,6.30
2022-08-22T18:15:25.580Z,6.05
2022-08-22T18:18:26.985Z,6.80
2022-08-22T18:21:10.626Z,6.65
2022-08-22T18:23:45.237Z,6.88
2022-08-22T18:26:53.682Z,7.28
2022-08-22T18:29:39.373Z,6.97
2022-08-22T18:34:36.656Z,8.63
2022-08-22T18:37:36.252Z,8.70
2022-08-22T18:40:20.835Z,9.40
2022-08-22T18:43:00.975Z,8.15
2022-08-22T18:45:46.966Z,8.82
2022-08-22T18:48:20.323Z,8.77
2022-08-22T18:50:50.195Z,7.38
2022-08-22T18:53:45.727Z,8.85
2022-08-22T18:56:43.586Z,8.48
2022-08-22T18:59:40.143Z,6.80
2022-08-22T19:02:55.573Z,6.40
2022-08-22T19:05:43.670Z,6.20
2022-08-22T19:08:38.817Z,6.80
2022-08-22T19:11:46.059Z,8.00
2022-08-22T19:14:23.023Z,8.20
2022-08-22T19:17:15.389Z,7.80
2022-08-22T19:20:20.175Z,8.88
2022-08-22T19:22:50.989Z,8.30
2022-08-22T19:25:26.477Z,9.50
2022-08-22T19:27:57.151Z,9.65
2022-08-22T19:30:33.886Z,9.27
2022-08-22T19:33:08.895Z,9.55
2022-08-22T19:36:03.298Z,11.15
2022-08-22T19:38:51.752Z,10.85
2022-08-22T19:41:39.599Z,9.77
2022-08-22T19:44:21.193Z,9.23
2022-08-22T19:47:03.247Z,9.65
2022-08-22T19:49:35.955Z,9.88
2022-08-22T19:52:15.938Z,8.98
2022-08-22T19:54:57.449Z,8.85
2022-08-22T19:57:47.165Z,8.95
2022-08-22T20:00:44.563Z,8.25
2022-08-22T20:03:50.820Z,9.23
2022-08-22T20:06:45.274Z,7.65
2022-08-22T20:09:38.772Z,8.40
2022-08-22T20:12:06.703Z,9.13
2022-08-22T20:14:38.220Z,8.43
2022-08-22T20:17:13.860Z,9.07
2022-08-22T20:22:59.326Z,8.93
2022-08-22T20:25:50.194Z,8.48
2022-08-22T20:28:29.792Z,8.55
2022-08-22T20:31:01.141Z,9.98
2022-08-22T20:33:37.088Z,8.93
2022-08-22T20:36:18.530Z,9.35
2022-08-22T20:39:09.161Z,10.18
2022-08-22T20:41:43.460Z,9.48
2022-08-22T20:44:17.399Z,9.63
2022-08-22T20:46:46.411Z,9.35
2022-08-22T20:49:18.617Z,10.82
2022-08-22T20:52:26.267Z,10.45
2022-08-22T20:55:08.321Z,10.30
2022-08-22T20:57:54.304Z,11.25
2022-08-22T21:00:28.351Z,10.55
2022-08-22T21:03:32.602Z,11.82
2022-08-22T21:06:28.310Z,11.77
2022-08-22T21:09:35.886Z,13.10
2022-08-22T21:12:09.080Z,13.27
2022-08-22T21:14:44.532Z,13.23
2022-08-22T21:17:34.423Z,14.13
2022-08-22T21:20:21.183Z,14.43
2022-08-22T21:22:49.746Z,12.70
2022-08-22T21:25:17.472Z,14.63
2022-08-22T21:27:49.448Z,14.20
2022-08-22T21:30:25.017Z,15.10
2022-08-22T21:32:56.282Z,14.57
2022-08-22T21:35:33.406Z,15.88
2022-08-22T21:38:02.156Z,15.25
2022-08-22T21:43:02.900Z,16.98
2022-08-22T21:45:39.730Z,16.35
2022-08-22T21:48:39.328Z,14.77
2022-08-22T21:51:28.994Z,16.20
2022-08-22T21:54:24.964Z,15.45
2022-08-22T21:56:55.245Z,16.23
2022-08-22T21:59:43.087Z,14.55
2022-08-22T22:02:36.377Z,15.93
2022-08-22T22:05:11.710Z,16.58
2022-08-22T22:07:41.853Z,19.02
2022-08-22T22:10:12.429Z,17.25
2022-08-22T22:12:42.024Z,17.80
2022-08-22T22:15:15.022Z,17.40
2022-08-22T22:17:43.467Z,17.95
2022-08-22T22:20:12.501Z,18.42
2022-08-22T22:22:41.213Z,20.23
2022-08-22T22:25:40.415Z,19.70
2022-08-22T22:28:12.407Z,20.25
2022-08-22T22:30:42.453Z,19.83
2022-08-22T22:33:10.969Z,19.60
2022-08-22T22:35:40.387Z,20.20
2022-08-22T22:38:08.748Z,21.27
2022-08-22T22:40:36.516Z,22.70
2022-08-22T22:43:04.346Z,23.73
2022-08-22T22:45:31.942Z,22.85
2022-08-22T22:47:59.812Z,20.50
2022-08-22T22:50:27.539Z,21.30
2022-08-22T22:52:55.212Z,22.33
2022-08-22T22:55:24.764Z,21.38
2022-08-22T22:57:59.280Z,21.63
2022-08-22T23:00:31.184Z,23.30
2022-08-22T23:03:01.675Z,22.98
2022-08-22T23:05:30.744Z,22.10
2022-08-22T23:10:27.711Z,20.80
2022-08-22T23:12:55.457Z,18.92
2022-08-22T23:15:23.263Z,20.02
2022-08-22T23:17:51.357Z,20.23
2022-08-22T23:20:19.818Z,20.03
2022-08-22T23:22:48.189Z,19.70
2022-08-22T23:25:16.238Z,18.52
2022-08-22T23:27:44.213Z,17.05
2022-08-22T23:30:16.346Z,17.63
2022-08-22T23:32:43.950Z,18.27
2022-08-22T23:35:11.758Z,17.02
2022-08-22T23:37:39.599Z,15.20
2022-08-22T23:40:09.399Z,13.68
2022-08-22T23:42:37.390Z,14.20
2022-08-22T23:45:05.614Z,15.02
2022-08-22T23:47:33.219Z,15.77
2022-08-22T23:50:06.227Z,15.25
2022-08-22T23:52:34.618Z,15.75
2022-08-22T23:55:02.249Z,15.50
2022-08-22T23:57:29.948Z,16.70
2022-08-22T23:59:58.478Z,15.93
